Time;durP1;ratioP1;P1;durP2;ratioP2;P2;SDS_P1;SDS_P2;PMS_P1;PMS_P2;Temp;Humidity;BMP_temperature;BMP_pressure;BME280_temperature;BME280_humidity;BME280_pressure;Samples;Min_cycle;Max_cycle;Signal;HPM_P1;HPM_P2
2022/07/31 00:02:20;;;;;;;7.20;3.00;;;;;;;15.61;75.93;98964.92;106304;1274;22604;-82
2022/07/31 00:05:06;;;;;;;6.20;2.50;;;;;;;15.59;75.94;98958.34;106018;1274;22541;-84
2022/07/31 00:07:38;;;;;;;5.80;2.40;;;;;;;15.53;75.77;98958.31;106479;1274;22571;-82
2022/07/31 00:10:13;;;;;;;5.80;2.50;;;;;;;15.49;75.93;98956.60;106130;1271;22671;-83
2022/07/31 00:12:53;;;;;;;7.40;2.60;;;;;;;15.49;75.91;98958.92;106321;1274;22542;-82
2022/07/31 00:15:35;;;;;;;6.80;2.90;;;;;;;15.52;75.96;98959.11;106353;1274;25706;-83
2022/07/31 00:18:24;;;;;;;7.10;2.80;;;;;;;15.53;76.00;98964.64;106043;1274;22638;-83
2022/07/31 00:21:06;;;;;;;6.90;3.10;;;;;;;15.52;75.98;98968.35;106136;1274;22811;-83
2022/07/31 00:23:39;;;;;;;7.10;2.80;;;;;;;15.48;76.00;98966.06;106103;1274;22534;-86
2022/07/31 00:26:16;;;;;;;6.00;2.70;;;;;;;15.45;76.17;98966.65;106085;1274;22583;-83
2022/07/31 00:28:54;;;;;;;7.00;2.70;;;;;;;15.44;76.13;98961.87;106295;1274;22691;-85
2022/07/31 00:31:35;;;;;;;8.20;3.40;;;;;;;15.43;76.07;98960.94;106570;1273;22529;-84
2022/07/31 00:34:18;;;;;;;6.40;3.20;;;;;;;15.40;76.20;98953.59;106186;1274;25553;-83
2022/07/31 00:36:55;;;;;;;8.50;3.10;;;;;;;15.43;76.23;98957.69;106190;1274;22535;-86
2022/07/31 00:40:35;;;;;;;8.00;3.20;;;;;;;15.44;76.15;98957.82;106169;1274;23279;-82
2022/07/31 00:42:46;;;;;;;8.50;3.40;;;;;;;15.42;76.19;98958.98;106101;1274;25509;-82
2022/07/31 00:45:35;;;;;;;10.30;3.80;;;;;;;15.41;76.25;98963.92;106105;1274;24218;-84
2022/07/31 00:48:39;;;;;;;8.20;3.30;;;;;;;15.43;76.27;98964.48;106291;1274;22596;-84
2022/07/31 00:51:39;;;;;;;8.40;3.20;;;;;;;15.44;76.27;98966.97;106415;1274;22721;-84
2022/07/31 00:54:16;;;;;;;8.60;3.40;;;;;;;15.42;76.27;98961.33;106310;1274;23347;-83
2022/07/31 00:57:06;;;;;;;7.70;2.70;;;;;;;15.44;76.42;98966.20;106127;1274;22860;-85
2022/07/31 00:59:44;;;;;;;7.90;3.20;;;;;;;15.43;76.25;98961.61;106189;1274;24222;-83
2022/07/31 01:02:23;;;;;;;7.10;3.30;;;;;;;15.45;76.31;98960.36;106428;1274;22550;-83
2022/07/31 01:04:50;;;;;;;7.50;2.80;;;;;;;15.43;76.28;98962.22;106142;1274;22620;-86
2022/07/31 01:07:48;;;;;;;8.60;3.20;;;;;;;15.39;76.25;98964.88;106175;1274;25302;-83
2022/07/31 01:11:02;;;;;;;7.20;3.30;;;;;;;15.40;76.47;98962.62;106077;1274;24294;-84
2022/07/31 01:18:50;;;;;;;;;;;;;;;;;;;;;
2022/07/31 01:22:09;;;;;;;;;;;;;;;;;;;;;
2022/07/31 01:29:55;;;;;;;7.30;3.20;;;;;;;15.32;76.38;98962.11;104324;1297;23533;-83
2022/07/31 01:33:59;;;;;;;6.70;3.70;;;;;;;15.31;76.43;98960.23;103334;1306;24352;-82
2022/07/31 01:36:54;;;;;;;;;;;;;;;;;;;;;
2022/07/31 01:40:36;;;;;;;;;;;;;;;;;;;;;
2022/07/31 01:44:34;;;;;;;11.50;4.40;;;;;;;15.43;76.72;98956.06;102907;1312;25391;-82
2022/07/31 01:47:59;;;;;;;;;;;;;;;;;;;;;
2022/07/31 01:51:09;;;;;;;8.20;3.40;;;;;;;15.40;76.53;98955.02;102804;1312;545509;-83
2022/07/31 01:53:56;;;;;;;7.00;3.30;;;;;;;15.34;76.50;98954.75;105163;1286;25335;-83
2022/07/31 01:56:49;;;;;;;8.30;3.00;;;;;;;15.30;76.45;98953.30;104982;1289;22572;-86
2022/07/31 01:59:50;;;;;;;6.90;3.30;;;;;;;15.26;76.50;98957.09;105242;1286;25315;-83
2022/07/31 02:02:24;;;;;;;8.10;3.20;;;;;;;15.23;76.48;98950.28;105207;1289;22711;-84
2022/07/31 02:05:12;;;;;;;8.20;3.10;;;;;;;15.23;76.59;98951.13;103568;1283;2530176;-83
2022/07/31 02:07:45;;;;;;;7.70;3.20;;;;;;;15.23;76.48;98948.25;105223;1286;25475;-84
2022/07/31 02:10:47;;;;;;;7.00;2.90;;;;;;;15.24;76.59;98945.98;105411;1284;22850;-86
2022/07/31 02:14:30;;;;;;;8.00;3.70;;;;;;;15.23;76.58;98943.40;105689;1284;24425;-86
2022/07/31 02:16:57;;;;;;;9.30;3.30;;;;;;;15.17;76.61;98940.55;104890;1292;23199;-83
2022/07/31 02:20:00;;;;;;;7.50;3.40;;;;;;;15.14;76.60;98934.88;104532;1292;24496;-84
2022/07/31 02:22:40;;;;;;;9.40;3.30;;;;;;;15.13;76.54;98932.80;104773;1292;25595;-85
2022/07/31 02:25:26;;;;;;;7.40;3.30;;;;;;;15.13;76.62;98933.23;104692;1292;25403;-84
2022/07/31 02:28:32;;;;;;;8.00;3.20;;;;;;;15.15;76.57;98937.49;104570;1292;23798;-85
2022/07/31 02:32:37;;;;;;;6.90;3.00;;;;;;;15.14;76.72;98932.55;104602;1292;22550;-86
2022/07/31 02:36:10;;;;;;;7.50;3.30;;;;;;;15.12;76.61;98929.32;105783;1281;25611;-83
2022/07/31 02:38:32;;;;;;;9.40;3.20;;;;;;;15.11;76.63;98925.85;105823;1281;22726;-83
2022/07/31 02:41:27;;;;;;;7.50;3.20;;;;;;;15.14;76.68;98924.88;105871;1281;22574;-83
2022/07/31 02:44:24;;;;;;;10.00;3.20;;;;;;;15.13;76.59;98921.84;105770;1279;25576;-83
2022/07/31 02:47:42;;;;;;;;;;;;;;;;;;;;;
2022/07/31 02:50:45;;;;;;;6.20;3.00;;;;;;;15.06;76.60;98910.76;104967;1288;24236;-85
2022/07/31 02:54:21;;;;;;;8.40;2.90;;;;;;;15.03;76.47;98914.23;105127;1282;25314;-84
2022/07/31 02:57:10;;;;;;;7.10;2.80;;;;;;;15.03;76.72;98908.11;105677;1282;24300;-84
2022/07/31 03:00:31;;;;;;;;;;;;;;;;;;;;;
2022/07/31 03:06:49;;;;;;;9.70;3.00;;;;;;;15.06;76.70;98897.68;105065;1285;22719;-84
2022/07/31 03:09:50;;;;;;;;;;;;;;;;;;;;;
2022/07/31 03:13:31;;;;;;;8.00;2.80;;;;;;;15.02;76.70;98897.52;104845;1285;22582;-83
2022/07/31 03:16:21;;;;;;;7.00;2.70;;;;;;;15.03;76.59;98899.73;105054;1285;22952;-84
2022/07/31 03:19:40;;;;;;;4.90;2.40;;;;;;;15.03;76.54;98902.96;104912;1287;24409;-84
2022/07/31 03:22:12;;;;;;;8.20;2.80;;;;;;;15.04;76.57;98895.65;104869;1287;25614;-83
2022/07/31 03:24:57;;;;;;;;;;;;;;;;;;;;;
2022/07/31 03:28:36;;;;;;;6.70;3.00;;;;;;;15.08;76.67;98895.64;104844;1282;24420;-85
2022/07/31 03:32:20;;;;;;;8.80;3.20;;;;;;;15.11;76.82;98892.02;106800;1281;25561;-84
2022/07/31 03:35:07;;;;;;;7.70;3.40;;;;;;;15.10;76.79;98890.23;105658;1279;22729;-85
2022/07/31 03:38:43;;;;;;;9.30;3.20;;;;;;;15.11;76.67;98895.55;105831;1279;25421;-84
2022/07/31 03:41:49;;;;;;;7.50;3.00;;;;;;;15.12;76.70;98893.45;106093;1279;22568;-83
2022/07/31 03:45:00;;;;;;;;;;;;;;;;;;;;;
2022/07/31 03:48:36;;;;;;;;;;;;;;;;;;;;;
2022/07/31 03:51:47;;;;;;;6.00;2.90;;;;;;;15.07;76.51;98887.52;106238;1276;22559;-84
2022/07/31 03:55:04;;;;;;;7.00;2.70;;;;;;;15.04;76.67;98884.01;106050;1276;22536;-85
2022/07/31 03:57:41;;;;;;;8.90;3.10;;;;;;;15.03;76.62;98884.33;106267;1274;25357;-85
2022/07/31 04:00:37;;;;;;;;;;;;;;;;;;;;;
2022/07/31 04:04:33;;;;;;;;;;;;;;;;;;;;;
2022/07/31 04:07:59;;;;;;;;;;;;;;;;;;;;;
2022/07/31 04:11:18;;;;;;;6.70;2.40;;;;;;;15.09;76.61;98889.67;105834;1282;25513;-84
2022/07/31 04:14:44;;;;;;;;;;;;;;;;;;;;;
2022/07/31 04:18:28;;;;;;;;;;;;;;;;;;;;;
2022/07/31 04:21:05;;;;;;;7.00;2.60;;;;;;;15.09;76.49;98889.88;105585;1282;22731;-84
2022/07/31 04:24:18;;;;;;;;;;;;;;;;;;;;;
2022/07/31 04:27:37;;;;;;;5.00;1.80;;;;;;;15.10;76.45;98886.47;105464;1284;24258;-86
2022/07/31 04:31:20;;;;;;;;;;;;;;;;;;;;;
2022/07/31 04:34:37;;;;;;;;;;;;;;;;;;;;;
2022/07/31 04:38:15;;;;;;;;;;;;;;;;;;;;;
2022/07/31 04:45:38;;;;;;;;;;;;;;;;;;;;;
2022/07/31 04:48:44;;;;;;;;;;;;;;;;;;;;;
2022/07/31 04:51:51;;;;;;;9.50;5.00;;;;;;;15.28;76.50;98882.16;104494;1290;22642;-86
2022/07/31 04:54:44;;;;;;;11.10;5.50;;;;;;;15.36;76.49;98886.20;104500;1290;22683;-85
2022/07/31 04:57:18;;;;;;;10.10;5.50;;;;;;;15.41;76.58;98887.90;104504;1291;22568;-85
2022/07/31 05:00:08;;;;;;;12.40;7.20;;;;;;;15.48;76.51;98888.73;104860;1290;25319;-83
2022/07/31 05:02:58;;;;;;;10.00;5.80;;;;;;;15.53;76.62;98883.50;104545;1291;25773;-82
2022/07/31 05:05:49;;;;;;;;;;;;;;;;;;;;;
2022/07/31 05:09:09;;;;;;;;;;;;;;;;;;;;;
2022/07/31 05:12:12;;;;;;;;;;;;;;;;;;;;;
2022/07/31 05:15:18;;;;;;;;;;;;;;;;;;;;;
2022/07/31 05:18:56;;;;;;;12.60;7.60;;;;;;;15.85;76.36;98891.56;105187;1284;25543;-84
2022/07/31 05:22:05;;;;;;;12.90;7.60;;;;;;;15.92;76.48;98891.84;104854;1290;22707;-83
2022/07/31 05:25:07;;;;;;;;;;;;;;;;;;;;;
2022/07/31 05:28:45;;;;;;;;;;;;;;;;;;;;;
2022/07/31 05:31:55;;;;;;;12.60;6.80;;;;;;;16.25;76.35;98891.45;105230;1284;22608;-86
2022/07/31 05:35:35;;;;;;;;;;;;;;;;;;;;;
2022/07/31 05:39:13;;;;;;;;;;;;;;;;;;;;;
2022/07/31 05:46:18;;;;;;;;;;;;;;;;;;;;;
2022/07/31 05:50:30;;;;;;;10.60;6.30;;;;;;;16.87;76.15;98881.51;103283;1306;24291;-85
2022/07/31 05:53:19;;;;;;;;;;;;;;;;;;;;;
2022/07/31 05:56:35;;;;;;;;;;;;;;;;;;;;;
2022/07/31 06:00:00;;;;;;;8.70;4.40;;;;;;;17.18;75.70;98884.09;103469;1303;22776;-87
2022/07/31 06:03:33;;;;;;;10.10;4.60;;;;;;;17.24;75.69;98880.23;103504;1303;23212;-84
2022/07/31 06:06:56;;;;;;;;;;;;;;;;;;;;;
2022/07/31 06:10:40;;;;;;;;;;;;;;;;;;;;;
2022/07/31 06:14:08;;;;;;;8.10;4.00;;;;;;;17.73;75.54;98878.32;102515;1317;24303;-85
2022/07/31 06:18:01;;;;;;;;;;;;;;;;;;;;;
2022/07/31 06:21:10;;;;;;;6.30;2.90;;;;;;;18.04;75.57;98872.33;103487;1303;24333;-86
2022/07/31 06:23:55;;;;;;;9.10;3.30;;;;;;;18.15;75.08;98869.77;103427;1303;22595;-84
2022/07/31 06:26:58;;;;;;;8.90;3.10;;;;;;;18.21;75.06;98868.00;103472;1303;22554;-84
2022/07/31 06:29:41;;;;;;;7.30;2.80;;;;;;;18.30;74.97;98870.66;103293;1302;22598;-85
2022/07/31 06:32:40;;;;;;;;;;;;;;;;;;;;;
2022/07/31 06:36:02;;;;;;;6.10;2.90;;;;;;;18.31;74.79;98875.39;103461;1302;22610;-85
2022/07/31 06:39:27;;;;;;;;;;;;;;;;;;;;;
2022/07/31 06:42:44;;;;;;;6.40;2.50;;;;;;;18.32;74.52;98882.15;104045;1300;22551;-87
2022/07/31 06:45:58;;;;;;;6.40;2.90;;;;;;;18.38;74.43;98877.48;104235;1291;22721;-87
2022/07/31 06:49:09;;;;;;;;;;;;;;;;;;;;;
2022/07/31 06:52:20;;;;;;;8.00;2.60;;;;;;;18.60;74.32;98875.82;105983;1276;22771;-85
2022/07/31 06:55:02;;;;;;;6.90;2.90;;;;;;;18.60;74.15;98874.90;106119;1278;22532;-85
2022/07/31 06:57:51;;;;;;;;;;;;;;;;;;;;;
2022/07/31 07:01:06;;;;;;;7.80;2.70;;;;;;;18.67;74.24;98880.31;106021;1278;25231;-85
2022/07/31 07:04:08;;;;;;;;;;;;;;;;;;;;;
2022/07/31 07:10:46;;;;;;;6.40;2.90;;;;;;;19.33;74.05;98880.86;106053;1277;22567;-88
2022/07/31 07:17:52;;;;;;;6.90;2.80;;;;;;;19.49;72.85;98882.48;105659;1284;22569;-87
2022/07/31 07:21:20;;;;;;;6.80;2.80;;;;;;;19.62;73.51;98884.84;105511;1284;22777;-86
2022/07/31 07:24:09;;;;;;;5.90;2.70;;;;;;;19.84;73.17;98882.89;105525;1284;26473;-90
2022/07/31 07:27:17;;;;;;;6.90;3.10;;;;;;;19.99;73.23;98885.12;105443;1284;25417;-87
2022/07/31 07:30:27;;;;;;;6.40;2.70;;;;;;;20.23;73.23;98886.79;105523;1284;22818;-86
2022/07/31 07:33:30;;;;;;;7.10;2.60;;;;;;;20.37;72.47;98887.13;105402;1283;24193;-90
2022/07/31 07:36:30;;;;;;;;;;;;;;;;;;;;;
2022/07/31 07:40:06;;;;;;;;;;;;;;;;;;;;;
2022/07/31 07:43:29;;;;;;;6.50;3.00;;;;;;;20.82;72.62;98878.96;106247;1277;25981;-89
2022/07/31 07:46:21;;;;;;;8.00;3.00;;;;;;;21.19;72.67;98882.03;106256;1276;22550;-87
2022/07/31 07:49:41;;;;;;;;;;;;;;;;;;;;;
2022/07/31 07:53:13;;;;;;;6.00;2.60;;;;;;;21.58;71.41;98869.43;106160;1277;24226;-92
2022/07/31 07:56:23;;;;;;;8.20;3.10;;;;;;;21.57;71.02;98873.30;105909;1283;22550;-88
2022/07/31 07:59:11;;;;;;;6.00;2.40;;;;;;;21.58;70.86;98875.79;105805;1277;24332;-89
2022/07/31 08:02:46;;;;;;;;;;;;;;;;;;;;;
2022/07/31 08:05:47;;;;;;;5.60;2.60;;;;;;;21.74;70.83;98872.69;106446;1278;22534;-90
2022/07/31 08:17:45;;;;;;;6.60;2.70;;;;;;;22.10;70.68;98880.04;105611;1287;25375;-88
2022/07/31 08:20:42;;;;;;;;;;;;;;;;;;;;;
2022/07/31 08:33:08;;;;;;;6.30;2.40;;;;;;;22.80;68.84;98877.20;105787;1281;25247;-91
2022/07/31 08:39:48;;;;;;;5.70;2.00;;;;;;;22.90;68.82;98876.26;105392;1290;22598;-90
2022/07/31 08:43:02;;;;;;;8.00;2.20;;;;;;;22.98;68.06;98876.96;105384;1290;23951;-88
2022/07/31 08:45:50;;;;;;;5.20;2.30;;;;;;;22.98;68.21;98872.59;106691;1290;22493;-91
2022/07/31 08:49:06;;;;;;;;;;;;;;;;;;;;;
2022/07/31 08:52:55;;;;;;;;;;;;;;;;;;;;;
2022/07/31 08:56:55;;;;;;;;;;;;;;;;;;;;;
2022/07/31 09:00:21;;;;;;;;;;;;;;;;;;;;;
2022/07/31 09:04:03;;;;;;;6.40;2.20;;;;;;;23.65;67.52;98866.29;106654;1281;24264;-89
2022/07/31 09:07:36;;;;;;;;;;;;;;;;;;;;;
2022/07/31 09:11:52;;;;;;;8.00;2.40;;;;;;;23.92;67.25;98866.55;107815;1266;22571;-91
2022/07/31 09:15:35;;;;;;;;;;;;;;;;;;;;;
2022/07/31 09:19:18;;;;;;;5.20;1.90;;;;;;;24.13;66.43;98864.42;105992;1287;25319;-91
2022/07/31 09:22:03;;;;;;;4.90;1.60;;;;;;;24.24;66.47;98862.77;106965;1285;22744;-89
2022/07/31 09:25:33;;;;;;;4.80;1.90;;;;;;;24.29;65.99;98867.75;105604;1288;22553;-90
2022/07/31 09:29:15;;;;;;;5.20;1.80;;;;;;;24.52;66.35;98870.30;104945;1294;22879;-92
2022/07/31 09:32:18;;;;;;;3.80;1.60;;;;;;;24.53;64.60;98868.24;105663;1293;25299;-91
2022/07/31 09:35:25;;;;;;;5.40;2.10;;;;;;;24.40;64.37;98865.09;105394;1294;22556;-91
2022/07/31 09:38:59;;;;;;;7.90;2.10;;;;;;;24.29;64.77;98862.49;105660;1293;23931;-89
2022/07/31 09:42:16;;;;;;;;;;;;;;;;;;;;;
2022/07/31 09:46:31;;;;;;;5.90;1.70;;;;;;;24.46;64.73;98853.36;107258;1281;23924;-90
2022/07/31 09:50:14;;;;;;;4.80;1.90;;;;;;;24.14;63.99;98855.20;105655;1287;24326;-89
2022/07/31 09:53:05;;;;;;;;;;;;;;;;;;;;;
2022/07/31 09:56:57;;;;;;;6.00;1.80;;;;;;;24.31;63.73;98853.88;105335;1298;22695;-92
2022/07/31 10:00:14;;;;;;;;;;;;;;;;;;;;;
2022/07/31 10:03:59;;;;;;;;;;;;;;;;;;;;;
2022/07/31 10:07:34;;;;;;;;;;;;;;;;;;;;;
2022/07/31 10:10:22;;;;;;;5.80;1.90;;;;;;;24.65;63.21;98855.44;108982;1265;23146;-86
2022/07/31 10:14:03;;;;;;;4.20;2.00;;;;;;;24.80;62.45;98853.70;107296;1278;23373;-91
2022/07/31 10:17:03;;;;;;;5.20;2.00;;;;;;;24.85;61.39;98841.95;107090;1284;22740;-91
2022/07/31 10:20:20;;;;;;;4.30;1.60;;;;;;;24.69;61.79;98842.55;106290;1284;25930;-92
2022/07/31 10:23:34;;;;;;;5.90;1.90;;;;;;;24.76;61.69;98842.48;106533;1284;22883;-89
2022/07/31 10:27:12;;;;;;;4.40;2.00;;;;;;;24.84;61.08;98842.73;106277;1284;23833;-90
2022/07/31 10:30:50;;;;;;;7.10;2.10;;;;;;;24.72;60.59;98837.86;107786;1265;22552;-89
2022/07/31 10:33:57;;;;;;;5.60;1.50;;;;;;;24.81;61.31;98843.45;108242;1278;22457;-90
2022/07/31 10:37:18;;;;;;;5.90;1.80;;;;;;;25.01;60.81;98838.58;107537;1279;22549;-92
2022/07/31 10:41:28;;;;;;;;;;;;;;;;;;;;;
2022/07/31 10:45:12;;;;;;;4.30;1.50;;;;;;;25.28;58.96;98840.98;104651;1294;22715;-90
2022/07/31 10:48:59;;;;;;;;;;;;;;;;;;;;;
2022/07/31 10:52:05;;;;;;;4.30;1.90;;;;;;;25.57;59.61;98833.88;104913;1300;25335;-90
2022/07/31 10:55:10;;;;;;;;;;;;;;;;;;;;;
2022/07/31 10:58:10;;;;;;;3.60;1.70;;;;;;;25.39;58.61;98831.98;104399;1300;22573;-88
2022/07/31 11:01:35;;;;;;;4.00;1.70;;;;;;;25.28;58.51;98832.95;104714;1302;24351;-91
2022/07/31 11:04:33;;;;;;;4.20;1.60;;;;;;;25.39;58.90;98826.79;104534;1300;23975;-89
2022/07/31 11:08:37;;;;;;;5.50;1.50;;;;;;;25.35;57.47;98833.19;103625;1300;22711;-89
2022/07/31 11:12:20;;;;;;;3.80;1.40;;;;;;;25.34;57.89;98831.55;104079;1306;25296;-91
2022/07/31 11:15:03;;;;;;;9.10;1.60;;;;;;;25.57;57.81;98825.06;104645;1303;23323;-88
2022/07/31 11:18:46;;;;;;;5.60;1.70;;;;;;;25.74;57.77;98824.95;103519;1312;545148;-90
2022/07/31 11:21:32;;;;;;;5.50;1.80;;;;;;;25.87;57.50;98829.91;105552;1286;22497;-90
2022/07/31 11:24:31;;;;;;;4.20;1.70;;;;;;;25.89;57.45;98826.06;106360;1277;22559;-89
2022/07/31 11:27:31;;;;;;;4.80;1.80;;;;;;;25.95;56.88;98828.73;106604;1277;22573;-91
2022/07/31 11:30:35;;;;;;;3.80;1.50;;;;;;;25.91;55.92;98826.95;107399;1277;22564;-94
2022/07/31 11:34:04;;;;;;;5.30;1.40;;;;;;;25.89;56.50;98822.88;107172;1274;22560;-93
2022/07/31 11:37:21;;;;;;;;;;;;;;;;;;;;;
2022/07/31 11:40:26;;;;;;;5.10;2.10;;;;;;;26.14;56.39;98828.60;107452;1274;22713;-89
2022/07/31 11:43:15;;;;;;;6.00;2.10;;;;;;;26.18;55.98;98827.58;107460;1274;22534;-91
2022/07/31 11:46:06;;;;;;;5.30;1.90;;;;;;;26.20;55.86;98831.45;107039;1275;23324;-89
2022/07/31 11:49:51;;;;;;;;;;;;;;;;;;;;;
2022/07/31 11:52:43;;;;;;;5.60;2.20;;;;;;;25.97;54.94;98824.07;107302;1274;23353;-87
2022/07/31 11:56:23;;;;;;;5.20;1.80;;;;;;;25.93;55.53;98824.41;106921;1274;22615;-90
2022/07/31 12:00:20;;;;;;;6.50;1.90;;;;;;;26.12;55.68;98820.80;107566;1274;22537;-91
2022/07/31 12:02:50;;;;;;;5.80;1.90;;;;;;;26.25;55.05;98818.95;105932;1282;22571;-88
2022/07/31 12:05:34;;;;;;;3.70;1.40;;;;;;;26.28;54.58;98823.41;105925;1282;22563;-89
2022/07/31 12:08:17;;;;;;;4.70;1.50;;;;;;;26.25;54.23;98820.47;105637;1282;24137;-87
2022/07/31 12:10:53;;;;;;;5.30;1.70;;;;;;;26.23;54.16;98817.45;105689;1284;23966;-88
2022/07/31 12:14:48;;;;;;;6.20;2.10;;;;;;;26.24;54.80;98814.99;106583;1282;24223;-87
2022/07/31 12:17:58;;;;;;;;;;;;;;;;;;;;;
2022/07/31 12:21:11;;;;;;;5.80;2.30;;;;;;;26.09;53.96;98816.58;106511;1288;22535;-93
2022/07/31 12:24:03;;;;;;;3.30;1.30;;;;;;;25.98;53.92;98811.60;107354;1288;22687;-91
2022/07/31 12:31:11;;;;;;;6.00;1.70;;;;;;;25.86;53.57;98813.29;108285;1281;22563;-92
2022/07/31 12:35:00;;;;;;;;;;;;;;;;;;;;;
2022/07/31 12:37:52;;;;;;;6.70;1.40;;;;;;;26.12;53.23;98810.51;108111;1270;23963;-88
2022/07/31 12:41:05;;;;;;;5.20;1.60;;;;;;;25.94;53.24;98811.91;108665;1270;22908;-88
2022/07/31 12:43:35;;;;;;;3.00;1.50;;;;;;;26.05;53.08;98811.67;108364;1267;22502;-88
2022/07/31 12:49:13;;;;;;;5.20;1.40;;;;;;;26.24;53.20;98807.42;109291;1267;22570;-92
2022/07/31 12:52:33;;;;;;;4.90;1.60;;;;;;;26.34;52.46;98801.14;107896;1281;22644;-89
2022/07/31 12:58:46;;;;;;;;;;;;;;;;;;;;;
2022/07/31 13:02:22;;;;;;;;;;;;;;;;;;;;;
2022/07/31 13:05:17;;;;;;;4.30;1.10;;;;;;;26.41;52.04;98794.77;107221;1287;24255;-91
2022/07/31 13:07:55;;;;;;;7.20;1.40;;;;;;;26.62;51.76;98790.07;107114;1287;23091;-93
2022/07/31 13:10:28;;;;;;;4.40;1.50;;;;;;;26.75;51.17;98795.79;105411;1288;24596;-90
2022/07/31 13:13:22;;;;;;;5.60;1.50;;;;;;;26.72;51.13;98795.36;106181;1287;24408;-91
2022/07/31 13:15:55;;;;;;;3.70;1.20;;;;;;;26.82;51.25;98791.73;105432;1287;24182;-85
2022/07/31 13:18:42;;;;;;;4.10;1.30;;;;;;;26.86;50.86;98788.10;105001;1287;23053;-91
2022/07/31 13:21:47;;;;;;;5.70;1.60;;;;;;;26.68;50.57;98782.23;105460;1290;24245;-90
2022/07/31 13:24:39;;;;;;;4.10;1.50;;;;;;;26.72;49.79;98772.42;105295;1287;24229;-88
2022/07/31 13:27:29;;;;;;;5.00;1.30;;;;;;;26.67;50.04;98778.27;106278;1287;22737;-91
2022/07/31 13:30:12;;;;;;;3.40;1.20;;;;;;;26.71;50.81;98774.55;106404;1288;25448;-90
2022/07/31 13:32:45;;;;;;;5.20;1.40;;;;;;;26.65;50.07;98776.44;106144;1281;22551;-92
2022/07/31 13:35:17;;;;;;;5.10;1.30;;;;;;;26.36;49.94;98782.36;106966;1281;22647;-90
2022/07/31 13:38:12;;;;;;;4.10;1.60;;;;;;;26.38;50.01;98772.54;107545;1281;22528;-92
2022/07/31 13:44:25;;;;;;;6.20;1.40;;;;;;;26.68;49.83;98762.21;107418;1281;22672;-90
2022/07/31 13:47:26;;;;;;;2.90;1.30;;;;;;;26.77;49.50;98755.79;106498;1281;22549;-91
2022/07/31 13:50:36;;;;;;;;;;;;;;;;;;;;;
2022/07/31 13:53:46;;;;;;;5.40;1.40;;;;;;;27.08;49.27;98748.70;106487;1282;25805;-91
2022/07/31 13:56:30;;;;;;;5.50;1.40;;;;;;;27.13;49.59;98749.84;106292;1281;22545;-90
2022/07/31 13:59:03;;;;;;;4.00;1.30;;;;;;;27.17;49.19;98753.51;105724;1281;25314;-90
2022/07/31 14:01:50;;;;;;;4.10;1.50;;;;;;;27.16;49.24;98752.23;105973;1281;22632;-89
2022/07/31 14:04:21;;;;;;;3.70;1.40;;;;;;;27.30;49.37;98749.46;108143;1271;23922;-90
2022/07/31 14:07:16;;;;;;;5.10;1.40;;;;;;;27.39;49.15;98749.75;107724;1278;23835;-92
2022/07/31 14:10:25;;;;;;;2.40;1.10;;;;;;;27.43;48.70;98747.52;108909;1269;22696;-91
2022/07/31 14:13:34;;;;;;;4.60;1.30;;;;;;;27.53;48.51;98750.95;107846;1280;22634;-89
2022/07/31 14:16:41;;;;;;;;;;;;;;;;;;;;;
2022/07/31 14:19:29;;;;;;;3.50;1.40;;;;;;;27.39;47.82;98740.41;108182;1267;22541;-90
2022/07/31 14:25:52;;;;;;;4.30;1.10;;;;;;;27.39;47.14;98739.11;105534;1293;22563;-87
2022/07/31 14:28:56;;;;;;;;;;;;;;;;;;;;;
2022/07/31 14:31:55;;;;;;;3.70;1.30;;;;;;;27.36;47.58;98739.94;107441;1270;22577;-91
2022/07/31 14:34:55;;;;;;;3.30;1.20;;;;;;;27.39;47.94;98743.34;108343;1278;22483;-90
2022/07/31 14:38:25;;;;;;;;;;;;;;;;;;;;;
2022/07/31 14:42:24;;;;;;;;;;;;;;;;;;;;;
2022/07/31 14:45:11;;;;;;;;;;;;;;;;;;;;;
2022/07/31 14:48:30;;;;;;;4.00;1.50;;;;;;;28.51;47.32;98727.29;109658;1279;22444;-90
2022/07/31 14:52:21;;;;;;;5.70;1.30;;;;;;;28.53;47.22;98734.45;109573;1270;22492;-91
2022/07/31 14:59:30;;;;;;;;;;;;;;;;;;;;;
2022/07/31 15:03:16;;;;;;;2.70;0.90;;;;;;;28.24;45.93;98732.05;106794;1304;22411;-90
2022/07/31 15:06:24;;;;;;;;;;;;;;;;;;;;;
2022/07/31 15:23:02;;;;;;;;;;;;;;;;;;;;;
2022/07/31 15:32:11;;;;;;;4.20;1.30;;;;;;;27.94;44.49;98725.73;109603;1279;22413;-89
2022/07/31 15:35:45;;;;;;;4.50;1.60;;;;;;;27.97;44.37;98720.84;109529;1279;22428;-90
2022/07/31 15:39:01;;;;;;;5.00;1.30;;;;;;;27.99;43.58;98719.20;108805;1284;22551;-87
2022/07/31 15:42:30;;;;;;;3.90;1.30;;;;;;;27.97;44.13;98717.72;109358;1279;22448;-89
2022/07/31 15:50:33;;;;;;;3.40;1.30;;;;;;;28.41;44.07;98716.85;109225;1280;22527;-91
2022/07/31 15:53:31;;;;;;;;;;;;;;;;;;;;;
2022/07/31 15:56:43;;;;;;;4.30;1.40;;;;;;;29.03;43.29;98714.90;108244;1290;22493;-90
2022/07/31 15:59:56;;;;;;;4.10;1.10;;;;;;;29.23;43.43;98708.63;108256;1289;22288;-91
2022/07/31 16:03:00;;;;;;;5.60;1.20;;;;;;;29.50;42.84;98707.71;108427;1287;22408;-91
2022/07/31 16:05:43;;;;;;;6.60;1.40;;;;;;;29.56;43.02;98702.69;108423;1287;22434;-90
2022/07/31 16:08:32;;;;;;;5.30;1.50;;;;;;;29.63;43.25;98700.23;108523;1287;22489;-93
2022/07/31 16:11:19;;;;;;;3.70;1.20;;;;;;;29.95;43.20;98703.10;108444;1287;22401;-89
2022/07/31 16:13:56;;;;;;;3.70;1.40;;;;;;;30.04;42.62;98705.94;108381;1286;22401;-90
2022/07/31 16:16:30;;;;;;;6.20;1.40;;;;;;;29.85;42.71;98704.77;108152;1287;22466;-90
2022/07/31 16:19:02;;;;;;;4.70;1.20;;;;;;;29.73;42.65;98704.48;108374;1287;22287;-90
2022/07/31 16:21:34;;;;;;;4.70;1.30;;;;;;;29.42;42.49;98707.40;108150;1287;22409;-90
2022/07/31 16:24:01;;;;;;;6.00;1.40;;;;;;;29.02;42.71;98700.53;108472;1287;22393;-90
2022/07/31 16:26:38;;;;;;;3.70;1.40;;;;;;;28.66;42.75;98705.77;108200;1287;22450;-93
2022/07/31 16:29:21;;;;;;;5.70;1.40;;;;;;;28.33;42.85;98705.07;108589;1281;22314;-89
2022/07/31 16:31:51;;;;;;;5.50;1.70;;;;;;;27.99;42.35;98706.41;109150;1279;23020;-91
2022/07/31 16:34:23;;;;;;;5.00;1.50;;;;;;;27.60;42.29;98700.77;109197;1280;22068;-92
2022/07/31 16:37:03;;;;;;;4.40;1.30;;;;;;;27.26;42.37;98699.27;109270;1281;22518;-93
2022/07/31 16:39:44;;;;;;;3.40;1.20;;;;;;;26.95;42.59;98696.67;109270;1279;22641;-90
2022/07/31 16:42:18;;;;;;;7.00;1.50;;;;;;;26.66;42.24;98693.77;109187;1281;22507;-93
2022/07/31 16:44:45;;;;;;;5.80;1.70;;;;;;;26.47;42.89;98694.99;109222;1281;22385;-91
2022/07/31 16:47:16;;;;;;;5.40;1.40;;;;;;;26.37;42.83;98695.64;108844;1281;23049;-88
2022/07/31 16:49:43;;;;;;;5.80;1.70;;;;;;;26.27;42.37;98694.09;109221;1281;22460;-90
2022/07/31 16:52:25;;;;;;;5.40;1.60;;;;;;;26.11;42.31;98695.50;108953;1281;22663;-88
2022/07/31 16:54:57;;;;;;;4.40;1.30;;;;;;;25.97;42.45;98694.43;109346;1281;22335;-92
2022/07/31 16:57:30;;;;;;;5.80;1.50;;;;;;;25.87;42.47;98694.56;109012;1281;23211;-92
2022/07/31 16:59:58;;;;;;;5.00;1.70;;;;;;;25.78;42.49;98700.41;109200;1281;22383;-91
2022/07/31 17:02:48;;;;;;;;;;;;;;;;;;;;;
2022/07/31 17:05:37;;;;;;;5.40;1.70;;;;;;;25.50;42.49;98695.85;109343;1281;22326;-91
2022/07/31 17:08:16;;;;;;;8.70;2.00;;;;;;;25.39;42.57;98702.36;108898;1281;22379;-91
2022/07/31 17:10:43;;;;;;;5.30;1.50;;;;;;;25.29;42.58;98702.64;109192;1281;22377;-93
2022/07/31 17:13:15;;;;;;;5.30;1.50;;;;;;;25.20;42.26;98700.63;108826;1281;23034;-91
2022/07/31 17:15:48;;;;;;;6.10;1.60;;;;;;;25.11;42.40;98700.82;109046;1281;23046;-90
2022/07/31 17:18:23;;;;;;;5.50;1.60;;;;;;;25.07;42.38;98702.00;108916;1281;22417;-89
2022/07/31 17:20:52;;;;;;;4.20;1.10;;;;;;;25.01;42.83;98697.40;109138;1281;23062;-91
2022/07/31 17:23:26;;;;;;;4.60;1.40;;;;;;;24.97;42.56;98701.02;109180;1281;22424;-91
2022/07/31 17:25:58;;;;;;;4.80;1.60;;;;;;;24.92;42.69;98707.66;109342;1280;22437;-91
2022/07/31 17:28:25;;;;;;;4.60;1.80;;;;;;;24.85;42.87;98702.80;108904;1281;22243;-90
2022/07/31 17:30:52;;;;;;;5.60;1.80;;;;;;;24.77;42.91;98700.98;108830;1281;22446;-91
2022/07/31 17:33:19;;;;;;;4.10;1.50;;;;;;;24.70;43.25;98704.08;108777;1282;22487;-92
2022/07/31 17:35:46;;;;;;;5.20;1.50;;;;;;;24.56;42.95;98706.61;108799;1281;22454;-90
2022/07/31 17:38:28;;;;;;;4.20;1.50;;;;;;;24.44;43.25;98710.95;108708;1281;22452;-90
2022/07/31 17:41:10;;;;;;;4.90;1.70;;;;;;;24.31;43.39;98711.97;109192;1281;22537;-91
2022/07/31 17:44:41;;;;;;;;;;;;;;;;;;;;;
2022/07/31 17:47:19;;;;;;;7.40;1.60;;;;;;;23.96;43.43;98719.25;109190;1280;22434;-90
2022/07/31 17:50:04;;;;;;;5.30;1.30;;;;;;;23.83;43.46;98721.34;108867;1281;22668;-89
2022/07/31 17:52:38;;;;;;;7.60;2.00;;;;;;;23.75;43.51;98721.13;109188;1281;22484;-91
2022/07/31 17:55:13;;;;;;;4.50;1.70;;;;;;;23.71;43.90;98723.35;108950;1281;22333;-89
2022/07/31 17:57:50;;;;;;;3.60;1.60;;;;;;;23.72;43.71;98720.58;108962;1281;22537;-90
2022/07/31 18:00:21;;;;;;;4.20;1.60;;;;;;;23.73;43.84;98725.15;108807;1281;22427;-91